Time,TemperatureF,DewpointF,PressureIn,WindDirection,WindDirectionDegrees,WindSpeedMPH,WindSpeedGustMPH,Humidity,HourlyPrecipIn,Conditions,Clouds,dailyrainin,SolarRadiationWatts/m^2,SoftwareType,DateUTC
2013-08-25 00:01:00,67.0,54.0,-100.00,ESE,104,0.0,5.0,63,0.00,,,0.00,0.000000,,2013-08-25 07:01:00,
2013-08-25 00:12:00,67.0,54.0,-100.00,ESE,104,0.0,5.0,63,0.00,,,0.00,0.000000,,2013-08-25 07:12:00,
2013-08-25 00:42:00,69.0,57.0,-100.00,WSW,254,0.0,6.0,65,0.00,,,0.00,0.000000,,2013-08-25 07:42:00,
2013-08-25 00:52:00,69.0,57.0,-100.00,WSW,254,0.0,6.0,65,0.00,,,0.00,0.000000,,2013-08-25 07:52:00,
2013-08-25 01:02:00,69.0,57.0,-100.00,WSW,254,0.0,6.0,65,0.00,,,0.00,0.000000,,2013-08-25 08:02:00,
2013-08-25 01:12:00,69.0,57.0,-100.00,WSW,254,0.0,6.0,65,0.00,,,0.00,0.000000,,2013-08-25 08:12:00,
2013-08-25 01:42:00,66.0,56.0,-100.00,ESE,110,0.0,5.0,71,0.00,,,0.00,0.000000,,2013-08-25 08:42:00,
2013-08-25 01:52:00,66.0,56.0,-100.00,ESE,110,0.0,5.0,71,0.00,,,0.00,0.000000,,2013-08-25 08:52:00,
2013-08-25 02:01:00,66.0,56.0,-100.00,ESE,110,0.0,5.0,71,0.00,,,0.00,0.000000,,2013-08-25 09:01:00,
2013-08-25 02:11:00,66.0,56.0,-100.00,ESE,110,0.0,5.0,71,0.00,,,0.00,0.000000,,2013-08-25 09:11:00,
2013-08-25 02:44:00,66.0,49.0,-100.00,North,5,0.0,0.0,54,0.00,,,0.00,0.000000,,2013-08-25 09:44:00,
2013-08-25 02:55:00,66.0,49.0,-100.00,North,5,0.0,0.0,54,0.00,,,0.00,0.000000,,2013-08-25 09:55:00,
2013-08-25 03:03:00,66.0,49.0,-100.00,North,5,0.0,0.0,54,0.00,,,0.00,0.000000,,2013-08-25 10:03:00,
2013-08-25 03:12:00,66.0,49.0,-100.00,North,5,0.0,0.0,54,0.00,,,0.00,0.000000,,2013-08-25 10:12:00,
2013-08-25 03:42:00,68.0,48.0,-100.00,ESE,112,0.0,4.0,49,0.00,,,0.00,0.000000,,2013-08-25 10:42:00,
2013-08-25 03:53:00,68.0,48.0,-100.00,ESE,112,0.0,4.0,49,0.00,,,0.00,0.000000,,2013-08-25 10:53:00,
2013-08-25 04:02:00,68.0,48.0,-100.00,ESE,112,0.0,4.0,49,0.00,,,0.00,0.000000,,2013-08-25 11:02:00,
2013-08-25 04:11:00,68.0,48.0,-100.00,ESE,112,0.0,4.0,49,0.00,,,0.00,0.000000,,2013-08-25 11:11:00,
2013-08-25 04:42:00,66.0,42.0,-100.00,SE,141,0.0,7.0,42,0.00,,,-99.99,0.000000,,2013-08-25 11:42:00,
2013-08-25 04:52:00,66.0,42.0,-100.00,SE,141,0.0,7.0,42,0.00,,,-99.99,0.000000,,2013-08-25 11:52:00,
2013-08-25 05:01:00,66.0,42.0,-100.00,SE,141,0.0,7.0,42,0.00,,,-99.99,0.000000,,2013-08-25 12:01:00,
2013-08-25 05:12:00,66.0,42.0,-100.00,SE,141,0.0,7.0,42,0.00,,,-99.99,0.000000,,2013-08-25 12:12:00,
2013-08-25 05:43:00,69.0,53.0,-100.00,NNE,33,3.0,9.0,57,0.00,,,0.00,0.000000,,2013-08-25 12:43:00,
2013-08-25 05:52:00,69.0,53.0,-100.00,NNE,33,3.0,9.0,57,0.00,,,0.00,0.000000,,2013-08-25 12:52:00,
2013-08-25 06:02:00,69.0,53.0,-100.00,NNE,33,3.0,9.0,57,0.00,,,0.00,0.000000,,2013-08-25 13:02:00,
2013-08-25 06:11:00,69.0,53.0,-100.00,NNE,33,3.0,9.0,57,0.00,,,0.00,0.000000,,2013-08-25 13:11:00,
2013-08-25 06:42:00,67.0,54.0,-100.00,SE,135,0.0,8.0,63,0.00,,,0.00,0.000000,,2013-08-25 13:42:00,
2013-08-25 06:52:00,67.0,54.0,-100.00,SE,135,0.0,8.0,63,0.00,,,0.00,0.000000,,2013-08-25 13:52:00,
2013-08-25 07:02:00,67.0,54.0,-100.00,SE,135,0.0,8.0,63,0.00,,,0.00,0.000000,,2013-08-25 14:02:00,
2013-08-25 07:11:00,67.0,54.0,-100.00,SE,135,0.0,8.0,63,0.00,,,0.00,0.000000,,2013-08-25 14:11:00,
2013-08-25 07:42:00,73.0,54.0,-100.00,SW,228,0.0,10.0,52,0.00,,,0.00,56.000000,,2013-08-25 14:42:00,
2013-08-25 07:52:00,73.0,54.0,-100.00,SW,228,0.0,10.0,52,0.00,,,0.00,56.000000,,2013-08-25 14:52:00,
2013-08-25 08:01:00,73.0,54.0,-100.00,SW,228,0.0,10.0,52,0.00,,,0.00,56.000000,,2013-08-25 15:01:00,
2013-08-25 08:11:00,73.0,54.0,-100.00,SW,228,0.0,10.0,52,0.00,,,0.00,56.000000,,2013-08-25 15:11:00,
2013-08-25 08:44:00,82.0,52.0,-100.00,ESE,115,3.0,12.0,36,0.00,,,0.00,321.000000,,2013-08-25 15:44:00,
2013-08-25 08:54:00,82.0,52.0,-100.00,ESE,115,3.0,12.0,36,0.00,,,0.00,321.000000,,2013-08-25 15:54:00,
2013-08-25 09:04:00,82.0,52.0,-100.00,ESE,115,3.0,12.0,36,0.00,,,0.00,321.000000,,2013-08-25 16:04:00,
2013-08-25 09:13:00,82.0,52.0,-100.00,ESE,115,3.0,12.0,36,0.00,,,0.00,321.000000,,2013-08-25 16:13:00,
2013-08-25 09:44:00,85.0,55.0,-100.00,SE,134,7.0,13.0,36,0.00,,,0.00,555.000000,,2013-08-25 16:44:00,
2013-08-25 09:54:00,85.0,55.0,-100.00,SE,134,7.0,13.0,36,0.00,,,0.00,555.000000,,2013-08-25 16:54:00,
2013-08-25 10:03:00,85.0,55.0,-100.00,SE,134,7.0,13.0,36,0.00,,,0.00,555.000000,,2013-08-25 17:03:00,
2013-08-25 10:11:00,85.0,55.0,-100.00,SE,134,7.0,13.0,36,0.00,,,0.00,555.000000,,2013-08-25 17:11:00,
2013-08-25 10:53:00,88.0,54.0,-100.00,SE,140,6.0,16.0,31,0.00,,,0.00,778.000000,,2013-08-25 17:53:00,
2013-08-25 11:02:00,88.0,54.0,-100.00,SE,140,6.0,16.0,31,0.00,,,0.00,778.000000,,2013-08-25 18:02:00,
2013-08-25 11:12:00,88.0,54.0,-100.00,SE,140,6.0,16.0,31,0.00,,,0.00,778.000000,,2013-08-25 18:12:00,
2013-08-25 11:43:00,87.0,55.0,-100.00,SW,227,9.0,18.0,34,0.00,,,0.00,926.000000,,2013-08-25 18:43:00,
2013-08-25 11:52:00,87.0,55.0,-100.00,SW,227,9.0,18.0,34,0.00,,,0.00,926.000000,,2013-08-25 18:52:00,
2013-08-25 12:02:00,87.0,55.0,-100.00,SW,227,9.0,18.0,34,0.00,,,0.00,926.000000,,2013-08-25 19:02:00,
2013-08-25 12:11:00,87.0,55.0,-100.00,SW,227,9.0,18.0,34,0.00,,,0.00,926.000000,,2013-08-25 19:11:00,
2013-08-25 12:42:00,82.0,56.0,-100.00,WNW,298,3.0,14.0,41,-99.99,,,0.00,284.000000,,2013-08-25 19:42:00,
2013-08-25 12:53:00,82.0,56.0,-100.00,WNW,298,3.0,14.0,41,-99.99,,,0.00,284.000000,,2013-08-25 19:53:00,
2013-08-25 13:03:00,82.0,56.0,-100.00,WNW,298,3.0,14.0,41,-99.99,,,0.00,284.000000,,2013-08-25 20:03:00,
2013-08-25 13:12:00,82.0,56.0,-100.00,WNW,298,3.0,14.0,41,-99.99,,,0.00,284.000000,,2013-08-25 20:12:00,
2013-08-25 13:43:00,84.0,53.0,-100.00,SE,146,5.0,11.0,34,0.00,,,0.00,479.000000,,2013-08-25 20:43:00,
2013-08-25 13:53:00,84.0,53.0,-100.00,SE,146,5.0,11.0,34,0.00,,,0.00,479.000000,,2013-08-25 20:53:00,
2013-08-25 14:01:00,84.0,53.0,-100.00,SE,146,5.0,11.0,34,0.00,,,0.00,479.000000,,2013-08-25 21:01:00,
2013-08-25 14:12:00,84.0,53.0,-100.00,SE,146,5.0,11.0,34,0.00,,,0.00,479.000000,,2013-08-25 21:12:00,
2013-08-25 14:43:00,78.0,57.0,-100.00,NE,49,8.0,15.0,49,0.00,,,0.00,368.000000,,2013-08-25 21:43:00,
2013-08-25 14:55:00,78.0,57.0,-100.00,NE,49,8.0,15.0,49,0.00,,,0.00,368.000000,,2013-08-25 21:55:00,
2013-08-25 15:03:00,78.0,57.0,-100.00,NE,49,8.0,15.0,49,0.00,,,0.00,368.000000,,2013-08-25 22:03:00,
2013-08-25 15:13:00,78.0,57.0,-100.00,NE,49,8.0,15.0,49,0.00,,,0.00,368.000000,,2013-08-25 22:13:00,
2013-08-25 16:43:00,85.0,61.0,-100.00,WSW,249,13.0,23.0,45,0.00,,,0.00,609.000000,,2013-08-25 23:43:00,
2013-08-25 16:53:00,85.0,61.0,-100.00,WSW,249,13.0,23.0,45,0.00,,,0.00,609.000000,,2013-08-25 23:53:00,
2013-08-25 17:02:00,85.0,61.0,-100.00,WSW,249,13.0,23.0,45,0.00,,,0.00,609.000000,,2013-08-26 00:02:00,
2013-08-25 17:11:00,85.0,61.0,-100.00,WSW,249,13.0,23.0,45,0.00,,,0.00,609.000000,,2013-08-26 00:11:00,
2013-08-25 17:42:00,69.0,62.0,-100.00,ESE,119,5.0,20.0,79,-99.99,,,0.00,410.000000,,2013-08-26 00:42:00,
2013-08-25 17:52:00,69.0,62.0,-100.00,ESE,119,5.0,20.0,79,-99.99,,,0.00,410.000000,,2013-08-26 00:52:00,
2013-08-25 18:01:00,69.0,62.0,-100.00,ESE,119,5.0,20.0,79,-99.99,,,0.00,410.000000,,2013-08-26 01:01:00,
2013-08-25 18:11:00,69.0,62.0,-100.00,ESE,119,5.0,20.0,79,-99.99,,,0.00,410.000000,,2013-08-26 01:11:00,
2013-08-25 18:42:00,65.0,61.0,-100.00,NE,36,3.0,7.0,87,0.04,,,0.04,71.000000,,2013-08-26 01:42:00,
2013-08-25 18:52:00,65.0,61.0,-100.00,NE,36,3.0,7.0,87,0.04,,,0.04,71.000000,,2013-08-26 01:52:00,
2013-08-25 19:02:00,65.0,61.0,-100.00,NE,36,3.0,7.0,87,0.04,,,0.04,71.000000,,2013-08-26 02:02:00,
2013-08-25 19:11:00,65.0,61.0,-100.00,NE,36,3.0,7.0,87,0.04,,,0.04,71.000000,,2013-08-26 02:11:00,
2013-08-25 19:42:00,67.0,63.0,-100.00,NW,318,0.0,6.0,87,0.00,,,0.04,75.000000,,2013-08-26 02:42:00,
2013-08-25 19:52:00,67.0,63.0,-100.00,NW,318,0.0,6.0,87,0.00,,,0.04,75.000000,,2013-08-26 02:52:00,
2013-08-25 20:02:00,67.0,63.0,-100.00,NW,318,0.0,6.0,87,0.00,,,0.04,75.000000,,2013-08-26 03:02:00,
2013-08-25 20:11:00,67.0,63.0,-100.00,NW,318,0.0,6.0,87,0.00,,,0.04,75.000000,,2013-08-26 03:11:00,
2013-08-25 20:44:00,66.0,61.0,-100.00,ENE,69,7.0,15.0,83,0.00,,,0.04,2.000000,,2013-08-26 03:44:00,
2013-08-25 20:56:00,66.0,61.0,-100.00,ENE,69,7.0,15.0,83,0.00,,,0.04,2.000000,,2013-08-26 03:56:00,
2013-08-25 21:05:00,66.0,61.0,-100.00,ENE,69,7.0,15.0,83,0.00,,,0.04,2.000000,,2013-08-26 04:05:00,
2013-08-25 21:14:00,66.0,61.0,-100.00,ENE,69,7.0,15.0,83,0.00,,,0.04,2.000000,,2013-08-26 04:14:00,
2013-08-25 21:44:00,65.0,59.0,-100.00,WSW,241,0.0,9.0,81,0.00,,,0.04,0.000000,,2013-08-26 04:44:00,
2013-08-25 21:53:00,65.0,59.0,-100.00,WSW,241,0.0,9.0,81,0.00,,,0.04,0.000000,,2013-08-26 04:53:00,
2013-08-25 22:03:00,65.0,59.0,-100.00,WSW,241,0.0,9.0,81,0.00,,,0.04,0.000000,,2013-08-26 05:03:00,
2013-08-25 22:13:00,65.0,59.0,-100.00,WSW,241,0.0,9.0,81,0.00,,,0.04,0.000000,,2013-08-26 05:13:00,
2013-08-25 22:44:00,64.0,59.0,-100.00,West,276,0.0,6.0,84,0.00,,,0.04,0.000000,,2013-08-26 05:44:00,
2013-08-25 22:52:00,64.0,59.0,-100.00,West,276,0.0,6.0,84,0.00,,,0.04,0.000000,,2013-08-26 05:52:00,
2013-08-25 23:02:00,64.0,59.0,-100.00,West,276,0.0,6.0,84,0.00,,,0.04,0.000000,,2013-08-26 06:02:00,
2013-08-25 23:12:00,64.0,59.0,-100.00,West,276,0.0,6.0,84,0.00,,,0.04,0.000000,,2013-08-26 06:12:00,
2013-08-25 23:42:00,66.0,59.0,-100.00,NE,46,0.0,7.0,79,0.00,,,0.04,0.000000,,2013-08-26 06:42:00,
2013-08-25 23:52:00,66.0,59.0,-100.00,NE,46,0.0,7.0,79,0.00,,,0.04,0.000000,,2013-08-26 06:52:00,